Latest Weather Observations for Swan Island

IDT60801

Issued at 11:35 am EDT Thursday 23 October 2014 (issued every 30 minutes, with the page automatically refreshed every 10 minutes)

About weather observations | Map of weather stations | Latest weather observations for TAS | Other Formats
Station Details ID: 092123 Name: SWAN ISLAND Lat: -40.73 Lon: 148.12 Height: 15.0 m
Data from the previous 72 hours. | See also: Recent months at Swan Island
Date/Time
EDT
Temp
°C
App
Temp
°C
Dew
Point
Rel
Hum
%
Delta-T
°C
Wind Press
QNH
hPa
Press
MSL
hPa
Rain
since 9 am
mm
Dir
 
Spd
km/h
Gust
km/h
Spd
kts
Gust
kts
23/11:30am 14.4 - - - - SE 50 65 27 35 1023.1 1023.1 0.0
23/11:00am 14.6 - - - - SE 50 63 27 34 1023.3 1023.3 0.0
23/10:30am 14.2 - - - - SSE 50 63 27 34 1023.1 1023.1 0.0
23/10:00am 14.0 - - - - SE 52 65 28 35 1022.8 1022.8 0.0
23/09:37am 13.6 - - - - SE 50 69 27 37 1022.6 1022.6 0.0
23/09:30am 14.1 - - - - SE 52 67 28 36 1022.5 1022.5 0.0
23/09:00am 13.5 - - - - SE 52 63 28 34 1022.2 1022.2 0.0
23/08:33am 13.1 - - - - SSE 46 65 25 35 1022.1 1022.1 0.0
23/08:30am 12.9 - - - - SSE 48 65 26 35 1022.1 1022.1 0.0
23/08:16am 12.9 - - - - SE 50 69 27 37 1021.8 1021.8 0.0
23/08:00am 13.0 - - - - SSE 50 69 27 37 1021.5 1021.5 0.0
23/07:54am 12.9 - - - - SSE 48 69 26 37 1021.3 1021.3 0.0
23/07:30am 13.1 - - - - SE 52 67 28 36 1020.7 1020.7 0.0
23/07:00am 12.8 - - - - SSE 54 72 29 39 1020.1 1020.1 0.0
23/06:54am 12.7 - - - - SSE 54 72 29 39 1020.0 1020.0 0.0
23/06:30am 12.9 - - - - SSE 50 65 27 35 1019.6 1019.6 0.0
23/06:00am 13.4 - - - - SSE 48 61 26 33 1019.5 1019.5 0.0
23/05:50am 13.7 - - - - SE 48 69 26 37 1019.3 1019.3 0.0
23/05:30am 13.7 - - - - SE 56 69 30 37 1018.9 1018.9 0.0
23/05:13am 13.7 - - - - SE 50 72 27 39 1018.8 1018.8 0.0
23/05:00am 13.8 - - - - SE 50 65 27 35 1018.7 1018.7 0.0
23/04:30am 13.8 - - - - SE 52 70 28 38 1018.5 1018.5 0.0
23/04:00am 13.7 - - - - SE 52 65 28 35 1018.1 1018.1 0.0
23/03:30am 13.9 - - - - SE 46 57 25 31 1018.2 1018.2 0.0
23/03:00am 13.9 - - - - SE 46 61 25 33 1018.1 1018.1 0.0
23/02:30am 13.8 - - - - SE 43 57 23 31 1018.2 1018.2 0.0
23/02:00am 13.8 - - - - SE 41 52 22 28 1018.1 1018.1 0.0
23/01:30am 13.8 - - - - SE 46 59 25 32 1017.8 1017.8 0.0
23/01:00am 14.0 - - - - SE 44 61 24 33 1017.5 1017.5 0.0
23/12:30am 14.6 - - - - SE 32 48 17 26 1017.8 1017.8 0.0
23/12:29am 14.7 - - - - SE 30 48 16 26 1017.8 1017.8 0.0
23/12:27am 14.8 - - - - SE 28 39 15 21 1017.8 1017.8 0.0
23/12:00am 14.6 - - - - S 9 15 5 8 1017.5 1017.5 0.0
 
Date/Time
EDT
Temp
°C
App
Temp
°C
Dew
Point
Rel
Hum
%
Delta-T
°C
Wind Press
QNH
hPa
Press
MSL
hPa
Rain
since 9 am
mm
Dir
 
Spd
km/h
Gust
km/h
Spd
kts
Gust
kts
22/11:30pm 14.7 - - - - W 15 22 8 12 1016.5 1016.5 0.0
22/11:00pm 14.7 - - - - WNW 11 17 6 9 1016.1 1016.1 0.0
22/10:30pm 14.4 - - - - W 15 22 8 12 1015.8 1015.8 0.0
22/10:00pm 14.3 - - - - W 9 17 5 9 1016.0 1016.0 0.0
22/09:30pm 14.4 - - - - WNW 9 13 5 7 1015.2 1015.2 0.0
22/09:00pm 14.5 - - - - N 11 19 6 10 1015.6 1015.6 0.0
22/08:30pm 14.5 - - - - N 9 17 5 9 1015.2 1015.2 0.0
22/08:00pm 14.7 - - - - WNW 13 17 7 9 1015.6 1015.6 0.0
22/07:30pm 14.9 - - - - W 19 26 10 14 1016.2 1016.2 0.0
22/07:00pm 15.1 - - - - WNW 15 20 8 11 1015.6 1015.6 0.0
22/06:30pm 15.7 - - - - WNW 15 19 8 10 1015.7 1015.7 0.0
22/06:00pm 16.6 - - - - WNW 15 20 8 11 1015.7 1015.7 0.0
22/05:30pm 17.4 - - - - WNW 13 20 7 11 1015.7 1015.7 0.0
22/05:00pm 18.0 - - - - NW 13 19 7 10 1015.8 1015.8 0.0
22/04:30pm 18.2 - - - - NW 11 19 6 10 1016.0 1016.0 0.0
22/04:00pm 17.7 - - - - NW 11 17 6 9 1015.9 1015.9 0.0
22/03:30pm 19.0 - - - - WNW 13 19 7 10 1016.5 1016.5 0.0
22/03:00pm 18.6 - - - - NW 9 13 5 7 1016.7 1016.7 0.0
22/02:30pm 18.9 - - - - NNW 7 9 4 5 1017.0 1017.0 0.0
22/02:00pm 18.8 - - - - NNW 9 11 5 6 1017.6 1017.6 0.0
22/01:30pm 20.1 - - - - NW 9 13 5 7 1018.0 1018.0 0.0
22/01:00pm 20.0 - - - - W 11 17 6 9 1018.6 1018.6 0.0
22/12:30pm 20.6 - - - - W 13 19 7 10 1019.0 1019.0 0.0
22/12:00pm 19.2 - - - - NW 11 15 6 8 1019.6 1019.6 0.0
22/11:30am 18.6 - - - - NNW 7 9 4 5 1020.1 1020.1 0.0
22/11:00am 18.4 - - - - N 11 15 6 8 1020.5 1020.5 0.0
22/10:30am 17.5 - - - - NE 15 17 8 9 1020.8 1020.8 0.0
22/10:00am 16.8 - - - - NE 17 20 9 11 1021.1 1021.1 0.0
22/09:30am 16.7 - - - - ENE 13 17 7 9 1021.5 1021.5 0.0
22/09:00am 16.1 - - - - ENE 15 19 8 10 1021.5 1021.5 0.0
22/08:30am 15.8 - - - - ENE 15 19 8 10 1021.9 1021.9 0.0
22/08:00am 15.3 - - - - ENE 17 19 9 10 1022.1 1022.1 0.0
22/07:30am 14.4 - - - - ENE 19 22 10 12 1022.3 1022.3 0.0
22/07:00am 14.0 - - - - ENE 19 20 10 11 1022.6 1022.6 0.0
22/06:30am 13.9 - - - - ENE 19 22 10 12 1023.0 1023.0 0.0
22/06:00am 13.8 - - - - ENE 19 20 10 11 1023.2 1023.2 0.0
22/05:30am 13.9 - - - - ENE 17 22 9 12 1023.3 1023.3 0.0
22/05:00am 14.1 - - - - ENE 17 20 9 11 1023.5 1023.5 0.0
22/04:30am 14.2 - - - - NE 19 30 10 16 1023.9 1023.9 0.0
22/04:00am 14.2 - - - - NE 20 28 11 15 1024.4 1024.4 0.0
22/03:30am 14.2 - - - - NE 24 32 13 17 1024.9 1024.9 0.0
22/03:00am 14.1 - - - - NE 19 26 10 14 1025.4 1025.4 0.0
22/02:30am 14.0 - - - - NE 13 22 7 12 1026.0 1026.0 0.0
22/02:00am 13.8 - - - - NNE 22 32 12 17 1026.2 1026.2 0.0
22/01:30am 14.0 - - - - NE 22 28 12 15 1026.5 1026.5 0.0
22/01:00am 13.9 - - - - NE 20 26 11 14 1027.2 1027.2 0.0
22/12:30am 14.1 - - - - NE 24 30 13 16 1027.8 1027.8 0.0
22/12:00am 14.0 - - - - NE 24 30 13 16 1028.3 1028.3 0.0
 
Date/Time
EDT
Temp
°C
App
Temp
°C
Dew
Point
Rel
Hum
%
Delta-T
°C
Wind Press
QNH
hPa
Press
MSL
hPa
Rain
since 9 am
mm
Dir
 
Spd
km/h
Gust
km/h
Spd
kts
Gust
kts
21/11:30pm 14.0 - - - - NE 19 24 10 13 1028.7 1028.7 0.0
21/11:00pm 14.0 - - - - NE 20 24 11 13 1029.1 1029.1 0.0
21/10:30pm 14.1 - - - - NE 22 30 12 16 1029.3 1029.3 0.0
21/10:00pm 14.0 - - - - ENE 20 26 11 14 1029.4 1029.4 0.0
21/09:30pm 13.9 - - - - ENE 22 24 12 13 1029.6 1029.6 0.0
21/09:00pm 13.9 - - - - ENE 26 32 14 17 1029.3 1029.3 0.0
21/08:30pm 13.8 - - - - ENE 22 30 12 16 1029.6 1029.6 0.0
21/08:00pm 13.5 - - - - ENE 24 30 13 16 1029.9 1029.9 0.0
21/07:30pm 13.7 - - - - NE 22 28 12 15 1029.8 1029.8 0.0
21/07:00pm 13.9 - - - - ENE 20 24 11 13 1029.7 1029.7 0.0
21/06:30pm 13.9 - - - - ENE 20 24 11 13 1029.8 1029.8 0.0
21/06:00pm 14.2 - - - - ENE 22 28 12 15 1029.9 1029.9 0.0
21/05:30pm 14.5 - - - - ENE 24 28 13 15 1030.1 1030.1 0.0
21/05:00pm 14.6 - - - - ENE 26 32 14 17 1030.1 1030.1 0.0
21/04:30pm 14.9 - - - - NE 26 32 14 17 1030.5 1030.5 0.0
21/04:00pm 15.0 - - - - NE 26 32 14 17 1030.6 1030.6 0.0
21/03:30pm 15.7 - - - - ENE 20 26 11 14 1031.1 1031.1 0.0
21/03:00pm 17.3 - - - - ESE 15 19 8 10 1031.5 1031.5 0.0
21/02:30pm 17.3 - - - - ESE 19 22 10 12 1031.8 1031.8 0.0
21/02:00pm 16.5 - - - - E 22 26 12 14 1032.2 1032.2 0.0
21/01:30pm 16.3 - - - - E 20 26 11 14 1032.5 1032.5 0.0
21/01:00pm 16.4 - - - - E 19 22 10 12 1032.9 1032.9 0.0
21/12:30pm 15.8 - - - - E 17 20 9 11 1033.0 1033.0 0.0
21/12:00pm 15.4 - - - - E 17 20 9 11 1033.4 1033.4 0.0
21/11:30am 15.0 - - - - ENE 19 20 10 11 1033.7 1033.7 0.0
21/11:00am 14.8 - - - - ENE 19 20 10 11 1034.1 1034.1 0.0
21/10:30am 14.4 - - - - E 15 19 8 10 1034.4 1034.4 0.0
21/10:00am 14.0 - - - - E 17 20 9 11 1034.3 1034.3 0.0
21/09:30am 13.8 - - - - ENE 17 20 9 11 1034.4 1034.4 0.0
21/09:00am 13.3 - - - - E 15 20 8 11 1034.3 1034.3 0.0
21/08:30am 13.3 - - - - ENE 17 22 9 12 1033.9 1033.9 0.0
21/08:00am 12.9 - - - - ENE 19 22 10 12 1033.9 1033.9 0.0
21/07:30am 12.6 - - - - ENE 22 30 12 16 1033.4 1033.4 0.0
21/07:00am 12.4 - - - - ENE 19 26 10 14 1033.2 1033.2 0.0
21/06:30am 12.3 - - - - ENE 20 30 11 16 1033.1 1033.1 0.0
21/06:00am 12.2 - - - - ENE 20 28 11 15 1032.9 1032.9 0.0
21/05:30am 12.4 - - - - NE 22 26 12 14 1032.7 1032.7 0.0
21/05:00am 12.4 - - - - ENE 22 28 12 15 1032.7 1032.7 0.0
21/04:30am 12.1 - - - - ESE 20 26 11 14 1032.7 1032.7 0.0
21/04:00am 11.9 - - - - ESE 22 26 12 14 1032.8 1032.8 0.0
21/03:30am 11.9 - - - - E 22 28 12 15 1033.1 1033.1 0.0
21/03:00am 12.1 - - - - E 22 30 12 16 1033.2 1033.2 0.0
21/02:30am 12.1 - - - - E 17 20 9 11 1033.7 1033.7 0.0
21/02:00am 12.1 - - - - E 19 22 10 12 1033.8 1033.8 0.0
21/01:30am 12.1 - - - - E 20 26 11 14 1033.9 1033.9 0.0
21/01:00am 12.1 - - - - E 19 26 10 14 1034.3 1034.3 0.0
21/12:30am 12.1 - - - - E 20 28 11 15 1034.7 1034.7 0.0
21/12:00am 12.1 - - - - E 17 20 9 11 1034.8 1034.8 0.0
 
Date/Time
EDT
Temp
°C
App
Temp
°C
Dew
Point
Rel
Hum
%
Delta-T
°C
Wind Press
QNH
hPa
Press
MSL
hPa
Rain
since 9 am
mm
Dir
 
Spd
km/h
Gust
km/h
Spd
kts
Gust
kts
20/11:30pm 12.0 - - - - E 19 22 10 12 1035.1 1035.1 0.0
20/11:00pm 12.1 - - - - E 20 26 11 14 1035.1 1035.1 0.0
20/10:30pm 12.0 - - - - E 22 28 12 15 1035.0 1035.0 0.0
20/10:00pm 12.1 - - - - E 22 28 12 15 1035.0 1035.0 0.0
20/09:30pm 12.1 - - - - E 20 24 11 13 1035.1 1035.1 0.0
20/09:00pm 12.0 - - - - E 19 24 10 13 1035.1 1035.1 0.0
20/08:30pm 12.0 - - - - E 20 26 11 14 1034.5 1034.5 0.0
20/08:00pm 11.8 - - - - E 20 24 11 13 1034.1 1034.1 0.0
20/07:30pm 11.7 - - - - E 22 26 12 14 1034.0 1034.0 0.0
20/07:00pm 11.9 - - - - ESE 22 30 12 16 1033.7 1033.7 0.0
20/06:30pm 11.9 - - - - ESE 22 28 12 15 1033.5 1033.5 0.0
20/06:00pm 12.5 - - - - ESE 20 26 11 14 1033.4 1033.4 0.0
20/05:30pm 12.7 - - - - ESE 24 32 13 17 1033.3 1033.3 0.0
20/05:00pm 13.0 - - - - E 24 30 13 16 1033.3 1033.3 0.0
20/04:30pm 13.3 - - - - ESE 24 30 13 16 1033.2 1033.2 0.0
20/04:00pm 13.7 - - - - ESE 24 30 13 16 1033.2 1033.2 0.0
20/03:30pm 13.1 - - - - ESE 24 30 13 16 1033.4 1033.4 0.0
20/03:00pm 13.2 - - - - ESE 24 30 13 16 1033.5 1033.5 0.0
20/02:30pm 12.9 - - - - ESE 22 30 12 16 1033.7 1033.7 0.0
20/02:00pm 13.0 - - - - ESE 22 28 12 15 1033.9 1033.9 0.0
20/01:30pm 13.1 - - - - SE 22 30 12 16 1034.0 1034.0 0.0
20/01:00pm 13.1 - - - - SE 22 30 12 16 1034.0 1034.0 0.0
20/12:30pm 13.0 - - - - SE 24 32 13 17 1034.2 1034.2 0.0
20/12:00pm 12.9 - - - - SE 24 33 13 18 1034.2 1034.2 0.0

Other Formats:

Comma delimited format used in spreadsheet applications
http://www.bom.gov.au/fwo/IDT60801/IDT60801.95985.axf

JavaScript Object Notation format (JSON) in row-major order
http://www.bom.gov.au/fwo/IDT60801/IDT60801.95985.json